createdAt,value
2023-03-03T00:01:15.257Z,24.05
2023-03-03T00:03:41.946Z,27.20
2023-03-03T00:06:11.486Z,28.38
2023-03-03T00:08:38.356Z,28.77
2023-03-03T00:11:06.723Z,29.00
2023-03-03T00:13:45.621Z,22.40
2023-03-03T00:16:27.358Z,24.60
2023-03-03T00:18:54.567Z,22.25
2023-03-03T00:21:33.483Z,24.73
2023-03-03T00:24:20.370Z,20.50
2023-03-03T00:26:50.131Z,24.58
2023-03-03T00:29:41.066Z,24.48
2023-03-03T00:32:16.717Z,23.85
2023-03-03T00:34:43.456Z,24.77
2023-03-03T00:37:28.949Z,22.05
2023-03-03T00:40:13.729Z,24.77
2023-03-03T00:42:40.827Z,20.38
2023-03-03T00:45:38.206Z,22.85
2023-03-03T00:48:20.253Z,20.67
2023-03-03T00:50:46.763Z,22.60
2023-03-03T00:53:21.049Z,19.23
2023-03-03T00:55:49.063Z,19.85
2023-03-03T00:58:16.852Z,20.05
2023-03-03T01:00:46.272Z,21.42
2023-03-03T01:03:19.068Z,22.25
2023-03-03T01:05:45.614Z,22.27
2023-03-03T01:08:12.659Z,19.33
2023-03-03T01:10:46.882Z,22.30
2023-03-03T01:13:13.324Z,21.35
2023-03-03T01:15:40.715Z,21.88
2023-03-03T01:18:07.817Z,20.42
2023-03-03T01:20:34.348Z,21.15
2023-03-03T01:23:00.965Z,20.15
2023-03-03T01:25:27.686Z,21.00
2023-03-03T01:27:54.513Z,20.85
2023-03-03T01:30:21.130Z,22.17
2023-03-03T01:32:47.509Z,19.80
2023-03-03T01:35:14.535Z,22.83
2023-03-03T01:37:40.964Z,20.73
2023-03-03T01:40:13.319Z,25.05
2023-03-03T01:42:39.841Z,21.85
2023-03-03T01:45:24.455Z,20.08
2023-03-03T01:48:01.410Z,19.63
2023-03-03T01:50:33.136Z,21.52
2023-03-03T01:53:02.418Z,22.80
2023-03-03T01:55:36.580Z,19.83
2023-03-03T01:58:37.230Z,21.58
2023-03-03T02:01:07.858Z,22.98
2023-03-03T02:03:34.992Z,21.92
2023-03-03T02:06:07.876Z,20.63
2023-03-03T02:08:47.749Z,20.27
2023-03-03T02:11:16.040Z,22.30
2023-03-03T02:13:42.474Z,23.30
2023-03-03T02:16:09.241Z,23.67
2023-03-03T02:18:35.801Z,19.88
2023-03-03T02:21:14.309Z,22.27
2023-03-03T02:23:59.135Z,23.77
2023-03-03T02:26:28.220Z,24.30
2023-03-03T02:29:00.188Z,24.00
2023-03-03T02:31:30.542Z,24.45
2023-03-03T02:33:57.862Z,25.25
2023-03-03T02:36:30.442Z,24.67
2023-03-03T02:39:10.482Z,24.33
2023-03-03T02:41:59.411Z,20.50
2023-03-03T02:44:33.492Z,21.95
2023-03-03T02:47:00.351Z,19.45
2023-03-03T02:49:30.832Z,22.30
2023-03-03T02:51:57.690Z,21.70
2023-03-03T02:54:27.878Z,23.98
2023-03-03T02:56:54.280Z,20.63
2023-03-03T02:59:20.771Z,22.63
2023-03-03T03:01:49.448Z,23.77
2023-03-03T03:04:21.317Z,24.73
2023-03-03T03:06:49.782Z,22.73
2023-03-03T03:09:18.500Z,25.20
2023-03-03T03:11:46.189Z,24.90
2023-03-03T03:14:14.584Z,24.23
2023-03-03T03:16:42.365Z,22.75
2023-03-03T03:19:08.989Z,25.08
2023-03-03T03:21:36.909Z,24.45
2023-03-03T03:24:04.912Z,24.23
2023-03-03T03:26:32.331Z,25.50
2023-03-03T03:28:59.352Z,25.17
2023-03-03T03:31:25.948Z,27.05
2023-03-03T03:33:52.897Z,29.67
2023-03-03T03:36:21.199Z,25.98
2023-03-03T03:38:48.434Z,24.65
2023-03-03T03:41:15.151Z,28.23
2023-03-03T03:43:42.260Z,29.30
2023-03-03T03:46:09.303Z,24.40
2023-03-03T03:48:36.117Z,23.77
2023-03-03T03:51:05.005Z,22.92
2023-03-03T03:53:32.205Z,23.63
2023-03-03T03:55:58.886Z,25.00
2023-03-03T03:58:25.581Z,22.83
2023-03-03T04:01:03.530Z,25.30
2023-03-03T04:03:30.178Z,25.45
2023-03-03T04:05:56.657Z,25.00
2023-03-03T04:08:23.502Z,26.25
2023-03-03T04:10:50.092Z,24.40
2023-03-03T04:13:16.495Z,23.42
2023-03-03T04:15:42.990Z,23.02
2023-03-03T04:18:09.579Z,45.88
2023-03-03T04:20:36.083Z,34.28
2023-03-03T04:23:02.866Z,27.20
2023-03-03T04:25:31.075Z,26.58
2023-03-03T04:27:57.738Z,27.52
2023-03-03T04:30:26.790Z,26.58
2023-03-03T04:32:55.737Z,26.73
2023-03-03T04:35:25.165Z,23.67
2023-03-03T04:37:52.775Z,24.70
2023-03-03T04:40:19.675Z,26.42
2023-03-03T04:42:48.960Z,28.42
2023-03-03T04:45:15.493Z,26.73
2023-03-03T04:47:42.273Z,26.38
2023-03-03T04:50:10.590Z,28.15
2023-03-03T04:52:37.433Z,30.42
2023-03-03T04:55:05.310Z,30.42
2023-03-03T04:57:32.149Z,30.98
2023-03-03T04:59:58.742Z,30.38
2023-03-03T05:02:25.417Z,31.15
2023-03-03T05:04:51.999Z,31.48
2023-03-03T05:07:19.936Z,31.38
2023-03-03T05:09:46.289Z,31.85
2023-03-03T05:12:12.671Z,35.90
2023-03-03T05:14:39.035Z,32.63
2023-03-03T05:17:05.905Z,37.15
2023-03-03T05:19:32.289Z,31.63
2023-03-03T05:21:58.729Z,36.83
2023-03-03T05:24:25.131Z,33.75
2023-03-03T05:26:51.524Z,32.97
2023-03-03T05:29:17.926Z,31.48
2023-03-03T05:31:45.638Z,34.67
2023-03-03T05:34:12.185Z,35.17
2023-03-03T05:36:38.624Z,32.78
2023-03-03T05:39:05.076Z,33.67
2023-03-03T05:41:31.440Z,32.03
2023-03-03T05:43:57.833Z,34.38
2023-03-03T05:46:24.378Z,36.67
2023-03-03T05:48:50.764Z,35.10
2023-03-03T05:51:17.205Z,38.10
2023-03-03T05:53:43.572Z,36.10
2023-03-03T05:56:10.016Z,42.03
2023-03-03T05:58:36.408Z,43.05
2023-03-03T06:01:02.876Z,44.35
2023-03-03T06:03:29.263Z,47.33
2023-03-03T06:05:55.652Z,43.10
2023-03-03T06:08:22.011Z,41.25
2023-03-03T06:10:48.600Z,46.30
2023-03-03T06:13:15.716Z,45.17
2023-03-03T06:15:42.213Z,45.03
2023-03-03T06:18:08.748Z,41.65
2023-03-03T06:20:36.542Z,42.45
2023-03-03T06:23:02.951Z,41.67
2023-03-03T06:25:29.347Z,40.05
2023-03-03T06:27:55.786Z,46.25
2023-03-03T06:30:22.270Z,45.45
2023-03-03T06:32:48.874Z,42.35
2023-03-03T06:35:15.376Z,45.38
2023-03-03T06:37:41.797Z,48.28
2023-03-03T06:40:08.963Z,50.55
2023-03-03T06:42:35.368Z,51.58
2023-03-03T06:45:01.777Z,57.10
2023-03-03T06:47:28.158Z,57.50
2023-03-03T06:49:54.519Z,53.42
2023-03-03T06:52:26.405Z,52.70
2023-03-03T06:54:58.828Z,52.10
2023-03-03T06:57:29.725Z,41.38
2023-03-03T07:00:02.488Z,47.17
2023-03-03T07:02:28.894Z,51.80
2023-03-03T07:04:56.673Z,51.72
2023-03-03T07:07:26.033Z,53.00
2023-03-03T07:09:55.362Z,45.53
2023-03-03T07:12:30.937Z,54.63
2023-03-03T07:15:17.616Z,51.28
2023-03-03T07:17:50.465Z,53.20
2023-03-03T07:20:24.005Z,52.53
2023-03-03T07:25:30.210Z,52.45
2023-03-03T07:28:01.836Z,52.13
2023-03-03T07:30:29.755Z,52.00
2023-03-03T07:32:58.720Z,51.85
2023-03-03T07:35:39.001Z,57.22
2023-03-03T07:38:25.632Z,56.08
2023-03-03T07:40:54.920Z,52.25
2023-03-03T07:43:54.618Z,56.13
2023-03-03T07:46:23.362Z,56.33
2023-03-03T07:48:51.436Z,54.70
2023-03-03T07:51:36.644Z,55.45
2023-03-03T07:54:42.557Z,55.30
2023-03-03T07:57:11.712Z,57.88
2023-03-03T07:59:44.192Z,52.30
2023-03-03T08:02:35.641Z,53.97
2023-03-03T08:05:04.906Z,58.97
2023-03-03T08:07:32.210Z,63.85
2023-03-03T08:10:00.219Z,61.17
2023-03-03T08:12:44.946Z,57.47
2023-03-03T08:15:25.753Z,60.65
2023-03-03T08:17:55.068Z,58.13
2023-03-03T08:20:42.312Z,55.10
2023-03-03T08:23:08.814Z,52.45
2023-03-03T08:25:35.275Z,55.38
2023-03-03T08:28:01.782Z,57.00
2023-03-03T08:30:28.200Z,57.00
2023-03-03T08:32:54.708Z,56.03
2023-03-03T08:35:21.163Z,56.22
2023-03-03T08:37:47.645Z,50.33
2023-03-03T08:40:14.305Z,54.33
2023-03-03T08:42:40.739Z,56.35
2023-03-03T08:45:07.363Z,49.63
2023-03-03T08:47:33.940Z,51.53
2023-03-03T08:50:00.330Z,50.63
2023-03-03T08:52:26.801Z,51.22
2023-03-03T08:54:54.140Z,47.30
2023-03-03T08:57:20.580Z,50.00
2023-03-03T08:59:47.701Z,46.97
2023-03-03T09:02:14.137Z,50.42
2023-03-03T09:04:40.497Z,52.65
2023-03-03T09:07:07.060Z,49.05
2023-03-03T09:09:33.579Z,46.65
2023-03-03T09:12:13.300Z,51.90
2023-03-03T09:14:39.658Z,48.75
2023-03-03T09:17:38.393Z,51.60
2023-03-03T09:20:35.567Z,50.70
2023-03-03T09:23:30.990Z,47.97
2023-03-03T09:26:15.288Z,44.63
2023-03-03T09:28:42.233Z,46.55
2023-03-03T09:31:24.340Z,44.42
2023-03-03T09:33:51.835Z,47.97
2023-03-03T09:36:38.108Z,45.50
2023-03-03T09:39:26.052Z,46.63
2023-03-03T09:42:26.835Z,51.65
2023-03-03T09:45:17.852Z,44.40
2023-03-03T09:48:03.180Z,48.67
2023-03-03T09:50:59.440Z,47.38
2023-03-03T09:53:45.027Z,44.67
2023-03-03T09:56:14.177Z,44.88
2023-03-03T09:58:49.580Z,45.10
2023-03-03T10:01:21.961Z,46.47
2023-03-03T10:04:18.575Z,34.20
2023-03-03T10:07:04.289Z,44.03
2023-03-03T10:10:03.213Z,43.13
2023-03-03T10:13:03.922Z,42.67
2023-03-03T10:15:46.969Z,46.20
2023-03-03T10:18:36.429Z,47.05
2023-03-03T10:21:10.485Z,48.78
2023-03-03T10:23:58.367Z,48.30
2023-03-03T10:27:13.409Z,45.03
2023-03-03T10:29:59.966Z,43.03
2023-03-03T10:32:40.508Z,46.92
2023-03-03T10:35:28.748Z,42.75
2023-03-03T10:38:25.745Z,45.72
2023-03-03T10:41:20.036Z,44.40
2023-03-03T10:44:03.142Z,43.95
2023-03-03T10:46:55.276Z,41.90
2023-03-03T10:49:39.186Z,43.67
2023-03-03T10:52:16.171Z,39.35
2023-03-03T10:55:14.694Z,42.63
2023-03-03T10:57:59.067Z,42.33
2023-03-03T11:01:03.113Z,39.63
2023-03-03T11:04:06.942Z,41.22
2023-03-03T11:07:05.871Z,42.03
2023-03-03T11:09:43.930Z,43.72
2023-03-03T11:12:49.493Z,39.42
2023-03-03T11:15:18.224Z,41.53
2023-03-03T11:18:07.785Z,39.58
2023-03-03T11:20:42.911Z,42.63
2023-03-03T11:23:28.191Z,38.92
2023-03-03T11:26:07.561Z,38.20
2023-03-03T11:29:07.857Z,37.40
2023-03-03T11:31:52.495Z,37.63
2023-03-03T11:34:40.874Z,34.33
2023-03-03T11:37:12.010Z,37.47
2023-03-03T11:39:41.216Z,38.00
2023-03-03T11:42:30.023Z,37.55
2023-03-03T11:45:02.160Z,39.03
2023-03-03T11:47:58.200Z,30.00
2023-03-03T11:50:47.727Z,39.00
2023-03-03T11:53:34.925Z,34.78
2023-03-03T11:56:27.002Z,30.98
2023-03-03T11:59:10.166Z,34.60
2023-03-03T12:01:42.898Z,38.38
2023-03-03T12:05:01.074Z,33.13
2023-03-03T12:08:07.391Z,33.42
2023-03-03T12:10:50.887Z,36.28
2023-03-03T12:13:41.374Z,36.92
2023-03-03T12:16:17.455Z,30.60
2023-03-03T12:18:59.163Z,34.00
2023-03-03T12:21:37.087Z,34.33
2023-03-03T12:24:12.342Z,30.48
2023-03-03T12:27:07.347Z,31.10
2023-03-03T12:29:50.949Z,32.75
2023-03-03T12:32:35.205Z,33.75
2023-03-03T12:35:12.045Z,35.10
2023-03-03T12:37:54.266Z,31.20
2023-03-03T12:40:33.205Z,29.30
2023-03-03T12:43:17.345Z,31.27
2023-03-03T12:46:17.709Z,30.73
2023-03-03T12:48:46.207Z,30.52
2023-03-03T12:51:36.862Z,31.38
2023-03-03T12:54:36.925Z,37.50
2023-03-03T12:57:09.681Z,33.58
2023-03-03T13:00:13.489Z,33.20
2023-03-03T13:05:31.354Z,30.30
2023-03-03T13:08:33.316Z,32.13
2023-03-03T13:11:24.617Z,30.35
2023-03-03T13:14:04.047Z,31.75
2023-03-03T13:16:40.561Z,33.45
2023-03-03T13:19:21.852Z,26.73
2023-03-03T13:22:13.659Z,30.85
2023-03-03T13:25:08.321Z,30.27
2023-03-03T13:27:40.104Z,31.00
2023-03-03T13:30:30.398Z,28.45
2023-03-03T13:33:02.644Z,27.98
2023-03-03T13:35:49.858Z,31.67
2023-03-03T13:38:22.243Z,32.15
2023-03-03T13:40:53.607Z,31.55
2023-03-03T13:43:26.553Z,29.77
2023-03-03T13:45:57.507Z,28.77
2023-03-03T13:48:52.162Z,31.70
2023-03-03T13:51:23.898Z,30.52
2023-03-03T13:54:16.087Z,29.15
2023-03-03T13:57:07.325Z,31.98
2023-03-03T13:59:59.718Z,29.42
2023-03-03T14:02:26.060Z,33.35
2023-03-03T14:05:01.433Z,30.33
2023-03-03T14:07:37.687Z,29.73
2023-03-03T14:10:18.460Z,35.78
2023-03-03T14:12:56.712Z,28.35
2023-03-03T14:15:31.494Z,25.90
2023-03-03T14:18:30.868Z,31.38
2023-03-03T14:21:04.989Z,31.10
2023-03-03T14:23:47.973Z,33.03
2023-03-03T14:26:14.696Z,27.65
2023-03-03T14:28:48.114Z,27.77
2023-03-03T14:31:27.014Z,27.95
2023-03-03T14:34:23.320Z,25.98
2023-03-03T14:36:53.874Z,30.77
2023-03-03T14:39:38.802Z,36.58
2023-03-03T14:42:31.412Z,37.53
2023-03-03T14:45:00.980Z,32.33
2023-03-03T14:47:28.698Z,36.75
2023-03-03T14:49:59.992Z,31.83
2023-03-03T14:52:28.669Z,35.95
2023-03-03T14:54:59.621Z,37.88
2023-03-03T14:57:35.483Z,36.83
2023-03-03T15:00:24.913Z,38.78
2023-03-03T15:03:15.537Z,34.13
2023-03-03T15:05:52.507Z,33.50
2023-03-03T15:08:32.127Z,35.38
2023-03-03T15:11:18.126Z,29.48
2023-03-03T15:13:45.004Z,31.90
2023-03-03T15:16:18.658Z,29.33
2023-03-03T15:19:18.659Z,33.08
2023-03-03T15:22:07.501Z,34.15
2023-03-03T15:24:49.231Z,37.30
2023-03-03T15:27:24.406Z,32.50
2023-03-03T15:30:18.460Z,30.50
2023-03-03T15:33:04.873Z,27.92
2023-03-03T15:36:09.178Z,27.30
2023-03-03T15:38:49.867Z,25.00
2023-03-03T15:41:26.008Z,25.75
2023-03-03T15:44:09.730Z,29.50
2023-03-03T15:47:07.685Z,24.13
2023-03-03T15:49:52.713Z,24.63
2023-03-03T15:52:33.004Z,23.92
2023-03-03T15:55:14.548Z,26.30
2023-03-03T15:58:05.739Z,23.33
2023-03-03T16:01:02.454Z,22.25
2023-03-03T16:03:53.070Z,20.25
2023-03-03T16:06:33.902Z,20.60
2023-03-03T16:09:21.354Z,21.05
2023-03-03T16:11:52.003Z,18.83
2023-03-03T16:14:36.691Z,21.65
2023-03-03T16:17:12.138Z,20.55
2023-03-03T16:20:09.025Z,20.20
2023-03-03T16:23:02.498Z,21.80
2023-03-03T16:28:16.946Z,20.80
2023-03-03T16:31:00.231Z,17.90
2023-03-03T16:36:04.873Z,19.42
2023-03-03T16:38:42.897Z,23.10
2023-03-03T16:41:15.488Z,20.55
2023-03-03T16:43:59.823Z,19.65
2023-03-03T16:46:38.475Z,20.30
2023-03-03T16:49:10.604Z,19.15
2023-03-03T16:51:56.835Z,21.73
2023-03-03T16:54:54.135Z,18.25
2023-03-03T16:57:37.392Z,22.33
2023-03-03T17:02:54.833Z,17.38
2023-03-03T17:05:53.693Z,19.52
2023-03-03T17:08:37.766Z,16.63
2023-03-03T17:11:30.269Z,20.17
2023-03-03T17:14:11.085Z,19.95
2023-03-03T17:16:53.069Z,17.15
2023-03-03T17:19:37.995Z,21.85
2023-03-03T17:22:12.380Z,18.50
2023-03-03T17:25:00.778Z,16.67
2023-03-03T17:27:48.456Z,19.55
2023-03-03T17:30:29.789Z,19.00
2023-03-03T17:33:06.020Z,20.00
2023-03-03T17:35:48.703Z,17.33
2023-03-03T17:38:22.027Z,22.52
2023-03-03T17:41:11.115Z,17.98
2023-03-03T17:43:59.029Z,19.27
2023-03-03T17:46:54.018Z,19.48
2023-03-03T17:49:35.581Z,18.65
2023-03-03T17:52:16.887Z,19.42
2023-03-03T17:54:58.883Z,19.42
2023-03-03T17:57:25.326Z,22.38
2023-03-03T18:00:19.486Z,18.88
2023-03-03T18:02:57.613Z,20.55
2023-03-03T18:05:26.726Z,23.15
2023-03-03T18:08:13.819Z,19.08
2023-03-03T18:10:46.713Z,25.00
2023-03-03T18:13:22.271Z,20.88
2023-03-03T18:16:10.794Z,24.05
2023-03-03T18:18:52.440Z,24.67
2023-03-03T18:21:18.884Z,24.63
2023-03-03T18:23:47.218Z,30.65
2023-03-03T18:26:41.893Z,23.75
2023-03-03T18:29:17.453Z,32.50
2023-03-03T18:31:59.883Z,33.05
2023-03-03T18:34:38.582Z,27.98
2023-03-03T18:37:31.149Z,30.48
2023-03-03T18:40:03.342Z,29.63
2023-03-03T18:42:41.378Z,33.45
2023-03-03T18:45:30.791Z,31.48
2023-03-03T18:47:59.652Z,32.53
2023-03-03T18:50:36.345Z,39.00
2023-03-03T18:53:11.209Z,52.65
2023-03-03T18:55:43.710Z,64.32
2023-03-03T18:58:15.923Z,67.40
2023-03-03T19:01:00.329Z,68.82
2023-03-03T19:03:46.965Z,41.80
2023-03-03T19:06:36.449Z,34.92
2023-03-03T19:09:08.828Z,33.60
2023-03-03T19:11:40.529Z,28.83
2023-03-03T19:14:18.752Z,32.53
2023-03-03T19:16:45.490Z,33.03
2023-03-03T19:19:17.648Z,32.53
2023-03-03T19:21:49.199Z,33.25
2023-03-03T19:24:28.059Z,35.47
2023-03-03T19:27:03.266Z,35.00
2023-03-03T19:29:48.392Z,39.55
2023-03-03T19:32:48.361Z,34.72
2023-03-03T19:35:34.325Z,36.78
2023-03-03T19:38:03.606Z,32.50
2023-03-03T19:40:59.978Z,29.35
2023-03-03T19:43:42.829Z,30.60
2023-03-03T19:46:37.416Z,33.60
2023-03-03T19:49:33.374Z,30.73
2023-03-03T19:52:23.926Z,30.73
2023-03-03T19:55:18.450Z,31.00
2023-03-03T19:58:00.050Z,34.90
2023-03-03T20:00:30.611Z,33.95
2023-03-03T20:03:25.313Z,34.55
2023-03-03T20:06:17.188Z,32.80
2023-03-03T20:08:59.406Z,35.72
2023-03-03T20:11:47.805Z,36.75
2023-03-03T20:14:39.608Z,33.40
2023-03-03T20:17:18.045Z,35.28
2023-03-03T20:20:01.226Z,36.13
2023-03-03T20:25:00.533Z,35.03
2023-03-03T20:27:48.265Z,36.63
2023-03-03T20:30:25.050Z,34.53
2023-03-03T20:33:07.960Z,38.03
2023-03-03T20:35:55.302Z,38.60
2023-03-03T20:38:51.761Z,40.03
2023-03-03T20:41:26.247Z,40.33
2023-03-03T20:44:09.387Z,37.65
2023-03-03T20:47:06.416Z,36.67
2023-03-03T20:49:55.184Z,36.60
2023-03-03T20:52:58.826Z,38.95
2023-03-03T20:58:09.627Z,39.55
2023-03-03T21:01:04.105Z,43.30
2023-03-03T21:03:37.222Z,43.53
2023-03-03T21:06:09.797Z,42.90
2023-03-03T21:08:48.236Z,42.38
2023-03-03T21:11:17.406Z,41.97
2023-03-03T21:13:47.822Z,40.58
2023-03-03T21:16:20.153Z,41.85
2023-03-03T21:19:11.117Z,41.70
2023-03-03T21:21:44.992Z,39.80
2023-03-03T21:24:15.083Z,47.75
2023-03-03T21:26:58.867Z,43.90
2023-03-03T21:29:35.667Z,48.42
2023-03-03T21:32:04.911Z,44.45
2023-03-03T21:34:32.550Z,42.58
2023-03-03T21:37:00.750Z,41.70
2023-03-03T21:39:35.729Z,45.45
2023-03-03T21:42:05.372Z,45.92
2023-03-03T21:44:33.880Z,41.47
2023-03-03T21:47:01.016Z,43.83
2023-03-03T21:49:28.074Z,44.60
2023-03-03T21:51:55.998Z,39.88
2023-03-03T21:54:22.717Z,45.65
2023-03-03T21:56:50.035Z,37.38
2023-03-03T21:59:17.386Z,41.00
2023-03-03T22:01:44.250Z,44.17
2023-03-03T22:04:10.875Z,43.30
2023-03-03T22:06:37.445Z,44.38
2023-03-03T22:09:05.042Z,41.15
2023-03-03T22:11:31.773Z,48.97
2023-03-03T22:13:58.258Z,45.22
2023-03-03T22:16:24.762Z,50.38
2023-03-03T22:18:51.205Z,43.85
2023-03-03T22:21:17.620Z,46.60
2023-03-03T22:23:44.090Z,50.65
2023-03-03T22:26:10.524Z,49.40
2023-03-03T22:28:36.895Z,47.33
2023-03-03T22:31:03.394Z,45.75
2023-03-03T22:33:30.614Z,50.28
2023-03-03T22:35:57.035Z,44.63
2023-03-03T22:38:24.986Z,49.05
2023-03-03T22:40:52.341Z,51.08
2023-03-03T22:43:18.726Z,48.55
2023-03-03T22:45:45.234Z,47.95
2023-03-03T22:48:12.230Z,47.20
2023-03-03T22:50:40.188Z,48.13
2023-03-03T22:53:07.377Z,45.95
2023-03-03T22:55:36.817Z,48.75
2023-03-03T22:58:09.382Z,52.80
2023-03-03T23:00:38.332Z,51.05
2023-03-03T23:03:06.550Z,52.50
2023-03-03T23:05:33.341Z,52.75
2023-03-03T23:07:59.768Z,53.20
2023-03-03T23:10:26.205Z,51.17
2023-03-03T23:12:52.619Z,50.33
2023-03-03T23:15:19.085Z,54.67
2023-03-03T23:17:46.384Z,57.45
2023-03-03T23:20:15.414Z,52.20
2023-03-03T23:22:41.917Z,52.92
2023-03-03T23:25:09.106Z,61.22
2023-03-03T23:27:35.906Z,49.55
2023-03-03T23:30:02.559Z,52.28
2023-03-03T23:32:28.910Z,52.92
2023-03-03T23:34:55.355Z,55.08
2023-03-03T23:37:22.098Z,53.22
2023-03-03T23:39:48.844Z,47.53
2023-03-03T23:42:15.221Z,53.03
2023-03-03T23:44:41.596Z,48.22
2023-03-03T23:47:08.744Z,53.28
2023-03-03T23:49:35.935Z,52.15
2023-03-03T23:52:02.921Z,54.88
2023-03-03T23:54:29.421Z,52.47
2023-03-03T23:56:55.845Z,49.10
2023-03-03T23:59:22.270Z,56.92
